Time;durP1;ratioP1;P1;durP2;ratioP2;P2;SDS_P1;SDS_P2;PMS_P1;PMS_P2;Temp;Humidity;BMP_temperature;BMP_pressure;BME280_temperature;BME280_humidity;BME280_pressure;Samples;Min_cycle;Max_cycle;Signal;HPM_P1;HPM_P2
2023/10/23 00:00:20;;;;;;;;;;;;;;;;;;5072464;28;19920;-60
2023/10/23 00:02:46;;;;;;;;;;;;;;;;;;5087924;28;19931;-60
2023/10/23 00:05:12;;;;;;;;;;;;;;;;;;5072159;28;20235;-60
2023/10/23 00:07:38;;;;;;;;;;;;;;;;;;5072469;28;20011;-60
2023/10/23 00:10:03;;;;;;;;;;;;;;;;;;5072223;28;20488;-60
2023/10/23 00:12:29;;;;;;;;;;;;;;;;;;5072321;28;19992;-60
2023/10/23 00:14:55;;;;;;;;;;;;;;;;;;5072124;28;19924;-60
2023/10/23 00:17:21;;;;;;;;;;;;;;;;;;5065722;28;19956;-60
2023/10/23 00:19:47;;;;;;;;;;;;;;;;;;5052183;28;19978;-60
2023/10/23 00:22:13;;;;;;;;;;;;;;;;;;5052090;28;19978;-60
2023/10/23 00:24:39;;;;;;;;;;;;;;;;;;5033998;28;19935;-60
2023/10/23 00:27:05;;;;;;;;;;;;;;;;;;5033757;28;20301;-60
2023/10/23 00:29:31;;;;;;;;;;;;;;;;;;5051948;28;19925;-59
2023/10/23 00:31:57;;;;;;;;;;;;;;;;;;5035313;28;19999;-59
2023/10/23 00:34:22;;;;;;;;;;;;;;;;;;5013993;28;20359;-59
2023/10/23 00:36:48;;;;;;;;;;;;;;;;;;5014103;28;19925;-60
2023/10/23 00:39:14;;;;;;;;;;;;;;;;;;5032086;28;19928;-58
2023/10/23 00:41:42;;;;;;;;;;;;;;;;;;5032016;28;19968;-59
2023/10/23 00:44:08;;;;;;;;;;;;;;;;;;5014118;28;19921;-59
2023/10/23 00:46:34;;;;;;;;;;;;;;;;;;5031759;28;20259;-59
2023/10/23 00:49:00;;;;;;;;;;;;;;;;;;5032027;28;19925;-59
2023/10/23 00:51:26;;;;;;;;;;;;;;;;;;5031717;28;20008;-59
2023/10/23 00:53:52;;;;;;;;;;;;;;;;;;5060796;28;19920;-58
2023/10/23 00:56:18;;;;;;;;;;;;;;;;;;5071787;28;19976;-59
2023/10/23 00:58:44;;;;;;;;;;;;;;;;;;5071917;28;19927;-59
2023/10/23 01:01:11;;;;;;;;;;;;;;;;;;5053570;28;19920;-59
2023/10/23 01:03:37;;;;;;;;;;;;;;;;;;5071858;28;19925;-59
2023/10/23 01:06:03;;;;;;;;;;;;;;;;;;5071459;28;19927;-59
2023/10/23 01:08:29;;;;;;;;;;;;;;;;;;5070983;28;19928;-60
2023/10/23 01:10:55;;;;;;;;;;;;;;;;;;5070842;28;19927;-60
2023/10/23 01:13:21;;;;;;;;;;;;;;;;;;5070973;28;19921;-59
2023/10/23 01:15:47;;;;;;;;;;;;;;;;;;5070765;28;19931;-59
2023/10/23 01:18:13;;;;;;;;;;;;;;;;;;5057053;28;19925;-59
2023/10/23 01:20:39;;;;;;;;;;;;;;;;;;5032695;28;20432;-59
2023/10/23 01:23:05;;;;;;;;;;;;;;;;;;5032652;28;19921;-60
2023/10/23 01:25:31;;;;;;;;;;;;;;;;;;5050510;28;19964;-59
2023/10/23 01:27:56;;;;;;;;;;;;;;;;;;5050417;28;20097;-60
2023/10/23 01:30:22;;;;;;;;;;;;;;;;;;5051140;28;19929;-60
2023/10/23 01:32:48;;;;;;;;;;;;;;;;;;5033302;28;19952;-59
2023/10/23 01:35:14;;;;;;;;;;;;;;;;;;5033352;28;19921;-59
2023/10/23 01:37:45;;;;;;;;;;;;;;;;;;5033611;28;19978;-59
2023/10/23 01:40:11;;;;;;;;;;;;;;;;;;5051487;28;20309;-60
2023/10/23 01:42:36;;;;;;;;;;;;;;;;;;5051870;28;19991;-60
2023/10/23 01:45:03;;;;;;;;;;;;;;;;;;5055097;28;19925;-60
2023/10/23 01:47:29;;;;;;;;;;;;;;;;;;5054737;28;19998;-60
2023/10/23 01:49:54;;;;;;;;;;;;;;;;;;5054982;28;19983;-60
2023/10/23 01:52:20;;;;;;;;;;;;;;;;;;5038544;28;20012;-60
2023/10/23 01:54:46;;;;;;;;;;;;;;;;;;5074843;28;20277;-60
2023/10/23 01:57:12;;;;;;;;;;;;;;;;;;5074871;28;20341;-60
2023/10/23 01:59:38;;;;;;;;;;;;;;;;;;5074540;28;19921;-59
2023/10/23 02:02:04;;;;;;;;;;;;;;;;;;5074482;28;19924;-59
2023/10/23 02:04:30;;;;;;;;;;;;;;;;;;5074757;28;19966;-59
2023/10/23 02:06:56;;;;;;;;;;;;;;;;;;5074628;28;20291;-60
2023/10/23 02:09:22;;;;;;;;;;;;;;;;;;5056418;28;19931;-60
2023/10/23 02:11:48;;;;;;;;;;;;;;;;;;5074460;28;19932;-59
2023/10/23 02:14:14;;;;;;;;;;;;;;;;;;5074544;28;19920;-59
2023/10/23 02:16:39;;;;;;;;;;;;;;;;;;5073572;28;19921;-59
2023/10/23 02:19:05;;;;;;;;;;;;;;;;;;5054381;28;19921;-59
2023/10/23 02:21:31;;;;;;;;;;;;;;;;;;5054253;28;19931;-59
2023/10/23 02:23:58;;;;;;;;;;;;;;;;;;5054034;28;19941;-59
2023/10/23 02:26:24;;;;;;;;;;;;;;;;;;5036348;28;19921;-59
2023/10/23 02:28:50;;;;;;;;;;;;;;;;;;5053917;28;19928;-60
2023/10/23 02:31:16;;;;;;;;;;;;;;;;;;5054249;28;19925;-59
2023/10/23 02:33:42;;;;;;;;;;;;;;;;;;5053952;28;19927;-59
2023/10/23 02:36:08;;;;;;;;;;;;;;;;;;5054141;28;19929;-59
2023/10/23 02:38:34;;;;;;;;;;;;;;;;;;5053992;28;19924;-59
2023/10/23 02:41:00;;;;;;;;;;;;;;;;;;5035930;28;19921;-59
2023/10/23 02:43:26;;;;;;;;;;;;;;;;;;5053964;28;19974;-59
2023/10/23 02:45:52;;;;;;;;;;;;;;;;;;5053797;28;19932;-59
2023/10/23 02:48:18;;;;;;;;;;;;;;;;;;5053800;28;19921;-59
2023/10/23 02:50:44;;;;;;;;;;;;;;;;;;5035578;28;19975;-59
2023/10/23 02:53:10;;;;;;;;;;;;;;;;;;5062335;28;19925;-59
2023/10/23 02:55:36;;;;;;;;;;;;;;;;;;5054333;28;19932;-59
2023/10/23 02:58:01;;;;;;;;;;;;;;;;;;5073440;28;19924;-59
2023/10/23 03:00:27;;;;;;;;;;;;;;;;;;5073591;28;19931;-59
2023/10/23 03:02:53;;;;;;;;;;;;;;;;;;5089054;28;19924;-59
2023/10/23 03:05:19;;;;;;;;;;;;;;;;;;5073519;28;20472;-59
2023/10/23 03:07:45;;;;;;;;;;;;;;;;;;5073306;28;19926;-59
2023/10/23 03:10:11;;;;;;;;;;;;;;;;;;5073216;28;19932;-59
2023/10/23 03:12:37;;;;;;;;;;;;;;;;;;5055207;28;20301;-59
2023/10/23 03:15:03;;;;;;;;;;;;;;;;;;5073232;28;20012;-59
2023/10/23 03:17:30;;;;;;;;;;;;;;;;;;5065508;28;20628;-59
2023/10/23 03:19:56;;;;;;;;;;;;;;;;;;5053247;28;19924;-59
2023/10/23 03:22:22;;;;;;;;;;;;;;;;;;5053037;28;19921;-60
2023/10/23 03:24:47;;;;;;;;;;;;;;;;;;5034766;28;19929;-59
2023/10/23 03:27:13;;;;;;;;;;;;;;;;;;5053328;28;19971;-59
2023/10/23 03:29:39;;;;;;;;;;;;;;;;;;5052641;28;19929;-60
2023/10/23 03:32:06;;;;;;;;;;;;;;;;;;5034990;28;19924;-59
2023/10/23 03:34:31;;;;;;;;;;;;;;;;;;5052877;28;19932;-59
2023/10/23 03:36:57;;;;;;;;;;;;;;;;;;5052608;28;19924;-59
2023/10/23 03:39:23;;;;;;;;;;;;;;;;;;5052656;22;19929;-63
2023/10/23 03:41:49;;;;;;;;;;;;;;;;;;5032009;28;19921;-64
2023/10/23 03:44:15;;;;;;;;;;;;;;;;;;5031760;28;19922;-64
2023/10/23 03:46:41;;;;;;;;;;;;;;;;;;5030593;28;19928;-66
2023/10/23 03:49:07;;;;;;;;;;;;;;;;;;5031489;28;20028;-64
2023/10/23 03:51:33;;;;;;;;;;;;;;;;;;5030742;28;20021;-64
2023/10/23 03:53:59;;;;;;;;;;;;;;;;;;5046753;28;19929;-64
2023/10/23 03:56:25;;;;;;;;;;;;;;;;;;5045579;28;19975;-66
2023/10/23 03:58:51;;;;;;;;;;;;;;;;;;5032262;28;19960;-64
2023/10/23 04:01:17;;;;;;;;;;;;;;;;;;5031635;28;20015;-63
2023/10/23 04:03:43;;;;;;;;;;;;;;;;;;5031451;28;19921;-63
2023/10/23 04:06:09;;;;;;;;;;;;;;;;;;5031150;28;19929;-63
2023/10/23 04:08:35;;;;;;;;;;;;;;;;;;5031281;28;19929;-64
2023/10/23 04:11:01;;;;;;;;;;;;;;;;;;5031221;28;20016;-64
2023/10/23 04:13:26;;;;;;;;;;;;;;;;;;5029240;28;19922;-63
2023/10/23 04:15:52;;;;;;;;;;;;;;;;;;5031179;28;19968;-63
2023/10/23 04:18:18;;;;;;;;;;;;;;;;;;5032154;28;19929;-63
2023/10/23 04:20:44;;;;;;;;;;;;;;;;;;5032369;28;19921;-63
2023/10/23 04:23:10;;;;;;;;;;;;;;;;;;5014408;28;19951;-63
2023/10/23 04:25:36;;;;;;;;;;;;;;;;;;5032141;28;19925;-63
2023/10/23 04:28:03;;;;;;;;;;;;;;;;;;5032062;28;19987;-64
2023/10/23 04:30:29;;;;;;;;;;;;;;;;;;5032012;28;19926;-64
2023/10/23 04:32:55;;;;;;;;;;;;;;;;;;5032248;28;19933;-64
2023/10/23 04:35:21;;;;;;;;;;;;;;;;;;5031949;28;20428;-64
2023/10/23 04:37:46;;;;;;;;;;;;;;;;;;5032031;28;19956;-64
2023/10/23 04:40:12;;;;;;;;;;;;;;;;;;4997608;28;19925;-64
2023/10/23 04:42:38;;;;;;;;;;;;;;;;;;5014178;28;19929;-64
2023/10/23 04:45:04;;;;;;;;;;;;;;;;;;5032038;28;19921;-64
2023/10/23 04:47:30;;;;;;;;;;;;;;;;;;5031983;28;20004;-64
2023/10/23 04:49:56;;;;;;;;;;;;;;;;;;5031843;28;19936;-64
2023/10/23 04:52:23;;;;;;;;;;;;;;;;;;5034029;28;19925;-64
2023/10/23 04:54:49;;;;;;;;;;;;;;;;;;5051814;28;20278;-64
2023/10/23 04:57:14;;;;;;;;;;;;;;;;;;5051643;28;19921;-64
2023/10/23 04:59:40;;;;;;;;;;;;;;;;;;5051854;28;19933;-64
2023/10/23 05:02:06;;;;;;;;;;;;;;;;;;5051725;28;20317;-64
2023/10/23 05:04:32;;;;;;;;;;;;;;;;;;5033731;28;20014;-64
2023/10/23 05:06:59;;;;;;;;;;;;;;;;;;5051685;28;19962;-64
2023/10/23 05:09:24;;;;;;;;;;;;;;;;;;5051711;28;19928;-63
2023/10/23 05:11:50;;;;;;;;;;;;;;;;;;5050122;28;20008;-64
2023/10/23 05:14:16;;;;;;;;;;;;;;;;;;5051740;28;19921;-64
2023/10/23 05:16:42;;;;;;;;;;;;;;;;;;5050432;28;19958;-64
2023/10/23 05:19:08;;;;;;;;;;;;;;;;;;5034734;28;20020;-63
2023/10/23 05:21:34;;;;;;;;;;;;;;;;;;5035419;28;19973;-64
2023/10/23 05:24:00;;;;;;;;;;;;;;;;;;5034820;28;19961;-63
2023/10/23 05:26:26;;;;;;;;;;;;;;;;;;5034873;28;19987;-65
2023/10/23 05:28:53;;;;;;;;;;;;;;;;;;5016976;28;19979;-64
2023/10/23 05:31:19;;;;;;;;;;;;;;;;;;5034452;28;20297;-64
2023/10/23 05:33:45;;;;;;;;;;;;;;;;;;5034419;28;19925;-64
2023/10/23 05:36:11;;;;;;;;;;;;;;;;;;5034049;28;20267;-64
2023/10/23 05:38:37;;;;;;;;;;;;;;;;;;5034280;28;20054;-64
2023/10/23 05:41:03;;;;;;;;;;;;;;;;;;5033710;28;20036;-64
2023/10/23 05:43:29;;;;;;;;;;;;;;;;;;5034755;28;19929;-64
2023/10/23 05:45:55;;;;;;;;;;;;;;;;;;5017218;28;19928;-64
2023/10/23 05:48:20;;;;;;;;;;;;;;;;;;5035088;28;19956;-64
2023/10/23 05:50:46;;;;;;;;;;;;;;;;;;5034872;28;20443;-63
2023/10/23 05:53:12;;;;;;;;;;;;;;;;;;5043704;28;20047;-63
2023/10/23 05:55:38;;;;;;;;;;;;;;;;;;5051192;28;19936;-63
2023/10/23 05:58:04;;;;;;;;;;;;;;;;;;5017157;28;20287;-63
2023/10/23 06:00:30;;;;;;;;;;;;;;;;;;5034766;28;19933;-63
2023/10/23 06:02:56;;;;;;;;;;;;;;;;;;5017164;28;20011;-63
2023/10/23 06:05:22;;;;;;;;;;;;;;;;;;5033374;28;19928;-63
2023/10/23 06:07:48;;;;;;;;;;;;;;;;;;5034509;28;19925;-63
2023/10/23 06:10:14;;;;;;;;;;;;;;;;;;5034387;28;20367;-63
2023/10/23 06:12:40;;;;;;;;;;;;;;;;;;5034342;28;19931;-63
2023/10/23 06:15:06;;;;;;;;;;;;;;;;;;5034663;28;19921;-63
2023/10/23 06:17:32;;;;;;;;;;;;;;;;;;5034101;28;19925;-64
2023/10/23 06:19:57;;;;;;;;;;;;;;;;;;5034066;28;20371;-63
2023/10/23 06:22:23;;;;;;;;;;;;;;;;;;5033915;28;19925;-64
2023/10/23 06:24:49;;;;;;;;;;;;;;;;;;5034325;28;20011;-63
2023/10/23 06:27:15;;;;;;;;;;;;;;;;;;5034160;28;20270;-64
2023/10/23 06:29:41;;;;;;;;;;;;;;;;;;5033956;28;19929;-64
2023/10/23 06:32:07;;;;;;;;;;;;;;;;;;5034022;28;19995;-63
2023/10/23 06:34:33;;;;;;;;;;;;;;;;;;5034207;28;19928;-63
2023/10/23 06:36:59;;;;;;;;;;;;;;;;;;5033857;28;19925;-63
2023/10/23 06:39:25;;;;;;;;;;;;;;;;;;5033784;28;20389;-63
2023/10/23 06:41:51;;;;;;;;;;;;;;;;;;5033994;28;19971;-63
2023/10/23 06:44:19;;;;;;;;;;;;;;;;;;5033970;28;19929;-63
2023/10/23 06:46:45;;;;;;;;;;;;;;;;;;5033740;28;20362;-64
2023/10/23 06:49:10;;;;;;;;;;;;;;;;;;5033695;28;19925;-63
2023/10/23 06:51:36;;;;;;;;;;;;;;;;;;5015838;28;19924;-63
2023/10/23 06:54:03;;;;;;;;;;;;;;;;;;5049433;28;20286;-64
2023/10/23 06:56:29;;;;;;;;;;;;;;;;;;5052207;28;19921;-64
2023/10/23 06:58:55;;;;;;;;;;;;;;;;;;5035370;28;19991;-64
2023/10/23 07:01:21;;;;;;;;;;;;;;;;;;5053095;28;19921;-63
2023/10/23 07:03:47;;;;;;;;;;;;;;;;;;5052492;28;20409;-64
2023/10/23 07:06:13;;;;;;;;;;;;;;;;;;5052418;28;19928;-64
2023/10/23 07:08:39;;;;;;;;;;;;;;;;;;5052614;28;19925;-64
2023/10/23 07:11:05;;;;;;;;;;;;;;;;;;5053105;28;20417;-64
2023/10/23 07:13:31;;;;;;;;;;;;;;;;;;5053330;28;19953;-63
2023/10/23 07:15:57;;;;;;;;;;;;;;;;;;5053305;28;20437;-64
2023/10/23 07:18:23;;;;;;;;;;;;;;;;;;5038068;28;19921;-63
2023/10/23 07:20:49;;;;;;;;;;;;;;;;;;5033209;28;19924;-63
2023/10/23 07:23:15;;;;;;;;;;;;;;;;;;5033161;28;20384;-63
2023/10/23 07:25:41;;;;;;;;;;;;;;;;;;5015355;28;20009;-64
2023/10/23 07:28:07;;;;;;;;;;;;;;;;;;5033001;28;20003;-63
2023/10/23 07:30:33;;;;;;;;;;;;;;;;;;5032963;28;19948;-63
2023/10/23 07:32:59;;;;;;;;;;;;;;;;;;5015114;28;19991;-63
2023/10/23 07:35:25;;;;;;;;;;;;;;;;;;5033000;28;19929;-63
2023/10/23 07:37:51;;;;;;;;;;;;;;;;;;5032859;28;19925;-64
2023/10/23 07:40:17;;;;;;;;;;;;;;;;;;5032134;28;19932;-64
2023/10/23 07:42:43;;;;;;;;;;;;;;;;;;5032881;28;19925;-64
2023/10/23 07:45:09;;;;;;;;;;;;;;;;;;5015035;28;19929;-64
2023/10/23 07:47:35;;;;;;;;;;;;;;;;;;5047995;28;19928;-64
2023/10/23 07:50:04;;;;;;;;;;;;;;;;;;5032444;28;19925;-63
2023/10/23 07:52:30;;;;;;;;;;;;;;;;;;5035748;28;19925;-63
2023/10/23 07:54:56;;;;;;;;;;;;;;;;;;5052234;28;19928;-63
2023/10/23 07:57:22;;;;;;;;;;;;;;;;;;5051978;28;20332;-64
2023/10/23 07:59:48;;;;;;;;;;;;;;;;;;5051833;28;19928;-65
2023/10/23 08:02:14;;;;;;;;;;;;;;;;;;5051835;28;19936;-64
2023/10/23 08:04:40;;;;;;;;;;;;;;;;;;5051600;28;19924;-64
2023/10/23 08:07:06;;;;;;;;;;;;;;;;;;5051861;28;19921;-64
2023/10/23 08:09:32;;;;;;;;;;;;;;;;;;5051883;28;20023;-64
2023/10/23 08:11:57;;;;;;;;;;;;;;;;;;5050027;28;19925;-64
2023/10/23 08:14:23;;;;;;;;;;;;;;;;;;5031750;28;19921;-64
2023/10/23 08:16:52;;;;;;;;;;;;;;;;;;5031919;28;20259;-64
2023/10/23 08:19:18;;;;;;;;;;;;;;;;;;5047065;28;19921;-64
2023/10/23 08:21:43;;;;;;;;;;;;;;;;;;5032213;28;20429;-64
2023/10/23 08:24:09;;;;;;;;;;;;;;;;;;5031859;28;19960;-64
2023/10/23 08:26:35;;;;;;;;;;;;;;;;;;5031806;28;19985;-66
2023/10/23 08:29:02;;;;;;;;;;;;;;;;;;5031620;28;19969;-64
2023/10/23 08:31:28;;;;;;;;;;;;;;;;;;5031662;28;20005;-64
2023/10/23 08:33:54;;;;;;;;;;;;;;;;;;5031452;28;20004;-64
2023/10/23 08:36:20;;;;;;;;;;;;;;;;;;5013950;28;19933;-64
2023/10/23 08:38:46;;;;;;;;;;;;;;;;;;5031378;28;19925;-64
2023/10/23 08:41:12;;;;;;;;;;;;;;;;;;5031455;28;19932;-64
2023/10/23 08:43:38;;;;;;;;;;;;;;;;;;5031336;28;20004;-64
2023/10/23 08:46:04;;;;;;;;;;;;;;;;;;5031229;28;20027;-65
2023/10/23 08:48:30;;;;;;;;;;;;;;;;;;5031193;28;19932;-64
2023/10/23 08:50:56;;;;;;;;;;;;;;;;;;5031504;28;19921;-64
2023/10/23 08:53:22;;;;;;;;;;;;;;;;;;5043034;28;20298;-64
2023/10/23 08:55:48;;;;;;;;;;;;;;;;;;5053914;28;20353;-64
2023/10/23 08:58:14;;;;;;;;;;;;;;;;;;5055317;28;19928;-64
2023/10/23 09:00:40;;;;;;;;;;;;;;;;;;5054473;28;19921;-64
2023/10/23 09:03:06;;;;;;;;;;;;;;;;;;5054601;28;20003;-64
2023/10/23 09:05:32;;;;;;;;;;;;;;;;;;5054663;28;19929;-64
2023/10/23 09:07:57;;;;;;;;;;;;;;;;;;5054603;28;20031;-64
2023/10/23 09:10:23;;;;;;;;;;;;;;;;;;5036360;28;19925;-64
2023/10/23 09:12:49;;;;;;;;;;;;;;;;;;5054855;28;19927;-64
2023/10/23 09:15:15;;;;;;;;;;;;;;;;;;5054712;28;20007;-64
2023/10/23 09:17:41;;;;;;;;;;;;;;;;;;5046147;28;20271;-64
2023/10/23 09:20:08;;;;;;;;;;;;;;;;;;5035592;28;19952;-62
2023/10/23 09:22:34;;;;;;;;;;;;;;;;;;5035576;28;19925;-63
2023/10/23 09:24:59;;;;;;;;;;;;;;;;;;5035319;28;20368;-63
2023/10/23 09:27:25;;;;;;;;;;;;;;;;;;5035486;28;20004;-63
2023/10/23 09:29:51;;;;;;;;;;;;;;;;;;5035053;28;19978;-63
2023/10/23 09:32:17;;;;;;;;;;;;;;;;;;5035124;28;19990;-63
2023/10/23 09:34:44;;;;;;;;;;;;;;;;;;5035185;28;19925;-64
2023/10/23 09:37:10;;;;;;;;;;;;;;;;;;5017418;28;20063;-63
2023/10/23 09:39:37;;;;;;;;;;;;;;;;;;5034892;28;19929;-63
2023/10/23 09:42:03;;;;;;;;;;;;;;;;;;5050302;28;19921;-63
2023/10/23 09:44:29;;;;;;;;;;;;;;;;;;5034397;28;20295;-63
2023/10/23 09:46:55;;;;;;;;;;;;;;;;;;5034244;28;19922;-63
2023/10/23 09:49:21;;;;;;;;;;;;;;;;;;5016516;28;19925;-63
2023/10/23 09:51:47;;;;;;;;;;;;;;;;;;5033688;28;20390;-63
2023/10/23 09:54:15;;;;;;;;;;;;;;;;;;5050988;28;19951;-64
2023/10/23 09:56:41;;;;;;;;;;;;;;;;;;5053557;28;19931;-64
2023/10/23 09:59:07;;;;;;;;;;;;;;;;;;5053541;28;19921;-64
2023/10/23 10:01:33;;;;;;;;;;;;;;;;;;5053551;28;19921;-63
2023/10/23 10:04:00;;;;;;;;;;;;;;;;;;5053280;28;19931;-62
2023/10/23 10:06:25;;;;;;;;;;;;;;;;;;5054442;28;19920;-63
2023/10/23 10:08:51;;;;;;;;;;;;;;;;;;5036259;28;20353;-63
2023/10/23 10:11:18;;;;;;;;;;;;;;;;;;5054463;28;19921;-64
2023/10/23 10:13:44;;;;;;;;;;;;;;;;;;5054200;28;19931;-64
2023/10/23 10:16:10;;;;;;;;;;;;;;;;;;5054307;28;20020;-63
2023/10/23 10:18:35;;;;;;;;;;;;;;;;;;5037747;28;19921;-63
2023/10/23 10:21:04;;;;;;;;;;;;;;;;;;5033947;28;19928;-63
2023/10/23 10:23:30;;;;;;;;;;;;;;;;;;5034445;28;19952;-63
2023/10/23 10:25:56;;;;;;;;;;;;;;;;;;5034131;28;19929;-63
2023/10/23 10:28:22;;;;;;;;;;;;;;;;;;5033998;28;19921;-63
2023/10/23 10:30:49;;;;;;;;;;;;;;;;;;5033959;28;19929;-63
2023/10/23 10:33:15;;;;;;;;;;;;;;;;;;5033404;28;19921;-63
2023/10/23 10:35:41;;;;;;;;;;;;;;;;;;5033792;28;19928;-63
2023/10/23 10:38:06;;;;;;;;;;;;;;;;;;5033823;28;19972;-64
2023/10/23 10:40:32;;;;;;;;;;;;;;;;;;5016137;28;19951;-63
2023/10/23 10:42:58;;;;;;;;;;;;;;;;;;5016090;28;19925;-64
2023/10/23 10:45:27;;;;;;;;;;;;;;;;;;5034172;28;20371;-64
2023/10/23 10:47:53;;;;;;;;;;;;;;;;;;5033920;28;19960;-63
2023/10/23 10:50:19;;;;;;;;;;;;;;;;;;5033858;28;19925;-63
2023/10/23 10:52:45;;;;;;;;;;;;;;;;;;5038945;28;19924;-64
2023/10/23 10:55:11;;;;;;;;;;;;;;;;;;5035671;28;19947;-63
2023/10/23 10:57:37;;;;;;;;;;;;;;;;;;5053684;28;19956;-63
2023/10/23 11:00:03;;;;;;;;;;;;;;;;;;5035583;28;19921;-64
2023/10/23 11:02:29;;;;;;;;;;;;;;;;;;5053619;28;19925;-64
2023/10/23 11:04:55;;;;;;;;;;;;;;;;;;5053477;28;20521;-63
2023/10/23 11:07:22;;;;;;;;;;;;;;;;;;5053469;28;19929;-63
2023/10/23 11:09:48;;;;;;;;;;;;;;;;;;5053305;28;19928;-64
2023/10/23 11:12:14;;;;;;;;;;;;;;;;;;5053251;28;19956;-63
2023/10/23 11:14:40;;;;;;;;;;;;;;;;;;5053084;28;19921;-64
2023/10/23 11:17:06;;;;;;;;;;;;;;;;;;5063681;28;19924;-64
2023/10/23 11:19:32;;;;;;;;;;;;;;;;;;5030847;28;19956;-64
2023/10/23 11:21:58;;;;;;;;;;;;;;;;;;5028061;28;19925;-64
2023/10/23 11:24:24;;;;;;;;;;;;;;;;;;5026565;28;19967;-64
2023/10/23 11:26:50;;;;;;;;;;;;;;;;;;5011095;28;19925;-64
2023/10/23 11:29:16;;;;;;;;;;;;;;;;;;5028672;28;19929;-64
2023/10/23 11:31:42;;;;;;;;;;;;;;;;;;5030180;28;20290;-64
2023/10/23 11:34:09;;;;;;;;;;;;;;;;;;5031815;28;19936;-64
2023/10/23 11:36:35;;;;;;;;;;;;;;;;;;5013454;28;20295;-64
2023/10/23 11:39:01;;;;;;;;;;;;;;;;;;5039127;22;20355;-60
2023/10/23 11:41:28;;;;;;;;;;;;;;;;;;5039180;28;19935;-60
2023/10/23 11:43:54;;;;;;;;;;;;;;;;;;5047120;28;19925;-60
2023/10/23 11:46:20;;;;;;;;;;;;;;;;;;5051774;28;19931;-60
2023/10/23 11:48:47;;;;;;;;;;;;;;;;;;5029705;28;20471;-60
2023/10/23 11:51:13;;;;;;;;;;;;;;;;;;5051684;28;19924;-60
2023/10/23 11:53:39;;;;;;;;;;;;;;;;;;5034377;28;20734;-60
2023/10/23 11:56:05;;;;;;;;;;;;;;;;;;5030938;28;20001;-60
2023/10/23 11:58:31;;;;;;;;;;;;;;;;;;5032408;28;19956;-60
2023/10/23 12:00:57;;;;;;;;;;;;;;;;;;5041252;28;19920;-60
2023/10/23 12:03:23;;;;;;;;;;;;;;;;;;5052249;28;19964;-60
2023/10/23 12:05:49;;;;;;;;;;;;;;;;;;5051735;28;20007;-60
2023/10/23 12:08:14;;;;;;;;;;;;;;;;;;5050928;28;19920;-60
2023/10/23 12:10:40;;;;;;;;;;;;;;;;;;5034120;28;19920;-60
2023/10/23 12:13:06;;;;;;;;;;;;;;;;;;5049795;28;19924;-60
2023/10/23 12:15:32;;;;;;;;;;;;;;;;;;5046084;28;20460;-60
2023/10/23 12:18:03;;;;;;;;;;;;;;;;;;5044880;28;19956;-60
2023/10/23 12:20:29;;;;;;;;;;;;;;;;;;5031759;28;20389;-59
2023/10/23 12:22:55;;;;;;;;;;;;;;;;;;5066803;28;19942;-60
2023/10/23 12:25:21;;;;;;;;;;;;;;;;;;5062994;28;20007;-60
2023/10/23 12:27:47;;;;;;;;;;;;;;;;;;5065657;28;19925;-60
2023/10/23 12:30:15;;;;;;;;;;;;;;;;;;5069706;28;19924;-60
2023/10/23 12:32:41;;;;;;;;;;;;;;;;;;5056545;28;19929;-60
2023/10/23 12:35:07;;;;;;;;;;;;;;;;;;5034711;28;19921;-60
2023/10/23 12:37:34;;;;;;;;;;;;;;;;;;5061627;28;19920;-60
2023/10/23 12:40:00;;;;;;;;;;;;;;;;;;5053353;28;20007;-60
2023/10/23 12:42:26;;;;;;;;;;;;;;;;;;5070249;28;20419;-60
2023/10/23 12:44:54;;;;;;;;;;;;;;;;;;5053529;28;19931;-60
2023/10/23 12:47:20;;;;;;;;;;;;;;;;;;5065834;28;19936;-60
2023/10/23 12:49:46;;;;;;;;;;;;;;;;;;5052053;28;19924;-60
2023/10/23 12:52:12;;;;;;;;;;;;;;;;;;5062637;28;20293;-60
2023/10/23 12:54:38;;;;;;;;;;;;;;;;;;5063840;28;19920;-60
2023/10/23 12:57:04;;;;;;;;;;;;;;;;;;5071471;28;19932;-60
2023/10/23 12:59:30;;;;;;;;;;;;;;;;;;5053154;28;19925;-60
2023/10/23 13:01:56;;;;;;;;;;;;;;;;;;5070524;28;19927;-60
2023/10/23 13:04:21;;;;;;;;;;;;;;;;;;5052523;28;19926;-59
2023/10/23 13:06:47;;;;;;;;;;;;;;;;;;5070941;28;19951;-60
2023/10/23 13:09:15;;;;;;;;;;;;;;;;;;5040749;28;20293;-60
2023/10/23 13:11:41;;;;;;;;;;;;;;;;;;5069081;28;19938;-59
2023/10/23 13:14:06;;;;;;;;;;;;;;;;;;5070254;28;20332;-62
2023/10/23 13:16:32;;;;;;;;;;;;;;;;;;5059461;28;19920;-59
2023/10/23 13:18:58;;;;;;;;;;;;;;;;;;5058147;28;19927;-59
2023/10/23 13:21:24;;;;;;;;;;;;;;;;;;5061330;28;20480;-59
2023/10/23 13:23:50;;;;;;;;;;;;;;;;;;5053791;28;19924;-60
2023/10/23 13:26:20;;;;;;;;;;;;;;;;;;5051476;28;19921;-60
2023/10/23 13:28:45;;;;;;;;;;;;;;;;;;5061572;28;19921;-60
2023/10/23 13:31:11;;;;;;;;;;;;;;;;;;5073524;28;20290;-59
2023/10/23 13:33:37;;;;;;;;;;;;;;;;;;5037173;28;19921;-59
2023/10/23 13:36:03;;;;;;;;;;;;;;;;;;5032654;28;20026;-60
2023/10/23 13:38:29;;;;;;;;;;;;;;;;;;5054187;28;20040;-60
2023/10/23 13:40:56;;;;;;;;;;;;;;;;;;5067002;28;19925;-60
2023/10/23 13:43:22;;;;;;;;;;;;;;;;;;5056051;28;19929;-60
2023/10/23 13:45:48;;;;;;;;;;;;;;;;;;5045092;28;19924;-60
2023/10/23 13:48:14;;;;;;;;;;;;;;;;;;5056734;28;20011;-60
2023/10/23 13:50:40;;;;;;;;;;;;;;;;;;5068202;28;19925;-60
2023/10/23 13:53:06;;;;;;;;;;;;;;;;;;5074851;28;19936;-61
2023/10/23 13:55:32;;;;;;;;;;;;;;;;;;5073811;28;19925;-60
2023/10/23 13:57:58;;;;;;;;;;;;;;;;;;5074769;28;19951;-60
2023/10/23 14:00:25;;;;;;;;;;;;;;;;;;5063239;28;19920;-59
2023/10/23 14:02:51;;;;;;;;;;;;;;;;;;5045626;28;19924;-59
2023/10/23 14:05:17;;;;;;;;;;;;;;;;;;5056725;28;20015;-59
2023/10/23 14:07:44;;;;;;;;;;;;;;;;;;5062244;28;20312;-60
2023/10/23 14:10:10;;;;;;;;;;;;;;;;;;5069613;28;19954;-59
2023/10/23 14:12:36;;;;;;;;;;;;;;;;;;5053803;28;19994;-60
2023/10/23 14:15:02;;;;;;;;;;;;;;;;;;5060097;28;19925;-60
2023/10/23 14:17:28;;;;;;;;;;;;;;;;;;5052195;28;19932;-60
2023/10/23 14:19:54;;;;;;;;;;;;;;;;;;5055737;28;20318;-59
2023/10/23 14:22:20;;;;;;;;;;;;;;;;;;5048403;28;19924;-59
2023/10/23 14:24:45;;;;;;;;;;;;;;;;;;5071559;28;19925;-59
2023/10/23 14:27:11;;;;;;;;;;;;;;;;;;5046232;28;20481;-59
2023/10/23 14:29:37;;;;;;;;;;;;;;;;;;5058106;28;20290;-60
2023/10/23 14:32:03;;;;;;;;;;;;;;;;;;5067940;28;19946;-60
2023/10/23 14:34:29;;;;;;;;;;;;;;;;;;5055102;28;20082;-59
2023/10/23 14:36:55;;;;;;;;;;;;;;;;;;5064782;28;19928;-60
2023/10/23 14:39:21;;;;;;;;;;;;;;;;;;5032357;28;20040;-59
2023/10/23 14:41:47;;;;;;;;;;;;;;;;;;5033134;28;20015;-60
2023/10/23 14:44:13;;;;;;;;;;;;;;;;;;5032413;28;20024;-60
2023/10/23 14:46:39;;;;;;;;;;;;;;;;;;5042990;28;19925;-59
2023/10/23 14:49:05;;;;;;;;;;;;;;;;;;5042978;28;19921;-59
2023/10/23 14:51:31;;;;;;;;;;;;;;;;;;5036579;28;20011;-60
2023/10/23 14:53:57;;;;;;;;;;;;;;;;;;5048482;28;20004;-59
2023/10/23 14:56:22;;;;;;;;;;;;;;;;;;5047232;28;19927;-60
2023/10/23 14:58:48;;;;;;;;;;;;;;;;;;5085742;28;19921;-60
2023/10/23 15:01:14;;;;;;;;;;;;;;;;;;5052380;28;19920;-60
2023/10/23 15:03:42;;;;;;;;;;;;;;;;;;5031522;28;20411;-60
2023/10/23 15:06:07;;;;;;;;;;;;;;;;;;5051472;28;19927;-60
2023/10/23 15:08:33;;;;;;;;;;;;;;;;;;5039276;28;20017;-60
2023/10/23 15:10:59;;;;;;;;;;;;;;;;;;5052661;28;19936;-60
2023/10/23 15:13:25;;;;;;;;;;;;;;;;;;5053418;28;20362;-60
2023/10/23 15:15:51;;;;;;;;;;;;;;;;;;5085224;28;19921;-60
2023/10/23 15:18:17;;;;;;;;;;;;;;;;;;5049409;28;20027;-60
2023/10/23 15:20:44;;;;;;;;;;;;;;;;;;5049077;28;19928;-60
2023/10/23 15:23:10;;;;;;;;;;;;;;;;;;5030983;28;19925;-60
2023/10/23 15:25:35;;;;;;;;;;;;;;;;;;5085165;28;19932;-60
2023/10/23 15:28:03;;;;;;;;;;;;;;;;;;5052777;28;19920;-60
2023/10/23 15:30:29;;;;;;;;;;;;;;;;;;5037818;28;19929;-60
2023/10/23 15:32:55;;;;;;;;;;;;;;;;;;5034737;28;19925;-60
2023/10/23 15:35:21;;;;;;;;;;;;;;;;;;5052926;28;20358;-60
2023/10/23 15:37:47;;;;;;;;;;;;;;;;;;5034273;28;20018;-59
2023/10/23 15:40:13;;;;;;;;;;;;;;;;;;5062395;28;19924;-60
2023/10/23 15:42:39;;;;;;;;;;;;;;;;;;5070911;28;19931;-60
2023/10/23 15:45:05;;;;;;;;;;;;;;;;;;5062798;28;20492;-60
2023/10/23 15:47:31;;;;;;;;;;;;;;;;;;5037482;28;19921;-60
2023/10/23 15:49:57;;;;;;;;;;;;;;;;;;5062488;28;19924;-60
2023/10/23 15:52:24;;;;;;;;;;;;;;;;;;5057894;28;19925;-60
2023/10/23 15:54:50;;;;;;;;;;;;;;;;;;5051245;28;19928;-61
2023/10/23 15:57:16;;;;;;;;;;;;;;;;;;5066343;28;19974;-60
2023/10/23 15:59:41;;;;;;;;;;;;;;;;;;5072234;28;19921;-60
2023/10/23 16:02:07;;;;;;;;;;;;;;;;;;5038868;28;20412;-60
2023/10/23 16:04:33;;;;;;;;;;;;;;;;;;5065657;28;19925;-60
2023/10/23 16:06:59;;;;;;;;;;;;;;;;;;5062901;28;19931;-60
2023/10/23 16:09:25;;;;;;;;;;;;;;;;;;5063513;28;19974;-60
2023/10/23 16:11:51;;;;;;;;;;;;;;;;;;5048607;28;19931;-60
2023/10/23 16:14:17;;;;;;;;;;;;;;;;;;5031608;28;20058;-60
2023/10/23 16:16:43;;;;;;;;;;;;;;;;;;5036382;28;19932;-60
2023/10/23 16:19:09;;;;;;;;;;;;;;;;;;5065577;28;20523;-60
2023/10/23 16:21:35;;;;;;;;;;;;;;;;;;5044548;28;20027;-60
2023/10/23 16:24:02;;;;;;;;;;;;;;;;;;5048474;28;19924;-60
2023/10/23 16:26:28;;;;;;;;;;;;;;;;;;5066821;28;20281;-60
2023/10/23 16:28:54;;;;;;;;;;;;;;;;;;5071426;28;19924;-60
2023/10/23 16:31:20;;;;;;;;;;;;;;;;;;5054792;28;19933;-60
2023/10/23 16:33:46;;;;;;;;;;;;;;;;;;5059015;28;19927;-60
2023/10/23 16:36:12;;;;;;;;;;;;;;;;;;5066718;28;20362;-60